createdAt,value
2022-08-09T00:00:04.699Z,78365.28
2022-08-09T00:02:33.918Z,78361.09
2022-08-09T00:06:12.089Z,78367.38
2022-08-09T00:07:48.029Z,78369.47
2022-08-09T00:10:18.010Z,78367.38
2022-08-09T00:12:51.538Z,78371.56
2022-08-09T00:15:19.467Z,78369.47
2022-08-09T00:18:05.456Z,78384.09
2022-08-09T00:20:32.442Z,78390.38
2022-08-09T00:23:07.819Z,78388.28
2022-08-09T00:25:51.918Z,78386.19
2022-08-09T00:28:19.301Z,78394.56
2022-08-09T00:30:52.213Z,78390.38
2022-08-09T00:33:18.785Z,78394.56
2022-08-09T00:36:02.253Z,78400.84
2022-08-09T00:38:28.881Z,78409.19
2022-08-09T00:40:55.471Z,78400.84
2022-08-09T00:44:11.191Z,78409.19
2022-08-09T00:46:14.569Z,78413.38
2022-08-09T00:48:58.646Z,78413.38
2022-08-09T00:51:27.466Z,78425.91
2022-08-09T00:54:00.516Z,78430.09
2022-08-09T00:56:27.131Z,78436.38
2022-08-09T00:58:53.648Z,78448.91
2022-08-09T01:01:23.176Z,78453.09
2022-08-09T01:04:41.909Z,78453.09
2022-08-09T01:07:18.575Z,78459.38
2022-08-09T01:10:31.893Z,78467.72
2022-08-09T01:13:22.346Z,78465.63
2022-08-09T01:15:53.001Z,78478.19
2022-08-09T01:18:29.737Z,78484.47
2022-08-09T01:21:21.211Z,78478.19
2022-08-09T01:24:01.780Z,78478.19
2022-08-09T01:26:43.314Z,78478.19
2022-08-09T01:29:15.451Z,78478.19
2022-08-09T01:32:30.994Z,78478.19
2022-08-09T01:34:31.759Z,78480.28
2022-08-09T01:36:59.700Z,78482.38
2022-08-09T01:39:27.332Z,78482.38
2022-08-09T01:42:00.530Z,78484.47
2022-08-09T01:44:29.391Z,78480.28
2022-08-09T01:46:58.258Z,78480.28
2022-08-09T01:49:28.353Z,78478.19
2022-08-09T01:52:10.834Z,78484.47
2022-08-09T01:54:51.305Z,78486.56
2022-08-09T01:57:22.861Z,78478.19
2022-08-09T01:59:52.656Z,78484.47
2022-08-09T02:02:31.163Z,78482.38
2022-08-09T02:05:05.244Z,78484.47
2022-08-09T02:08:40.559Z,78492.81
2022-08-09T02:10:29.702Z,78492.81
2022-08-09T02:12:57.853Z,78490.72
2022-08-09T02:15:27.126Z,78488.63
2022-08-09T02:18:14.313Z,78490.72
2022-08-09T02:20:45.506Z,78494.91
2022-08-09T02:23:32.085Z,78494.91
2022-08-09T02:26:07.544Z,78503.28
2022-08-09T02:28:54.652Z,78505.38
2022-08-09T02:31:23.837Z,78515.81
2022-08-09T02:34:07.252Z,78509.53
2022-08-09T02:36:41.971Z,78509.53
2022-08-09T02:39:14.291Z,78503.28
2022-08-09T02:41:54.600Z,78501.19
2022-08-09T02:44:29.399Z,78497.00
2022-08-09T02:46:58.422Z,78494.91
2022-08-09T02:49:27.369Z,78482.38
2022-08-09T02:52:06.347Z,78484.47
2022-08-09T02:54:35.131Z,78497.00
2022-08-09T02:57:23.489Z,78501.19
2022-08-09T03:00:25.436Z,78503.28
2022-08-09T03:02:38.406Z,78511.63
2022-08-09T03:05:25.213Z,78513.72
2022-08-09T03:07:55.345Z,78513.72
2022-08-09T03:10:23.087Z,78515.81
2022-08-09T03:12:52.163Z,78524.19
2022-08-09T03:15:20.769Z,78532.53
2022-08-09T03:17:53.909Z,78549.28
2022-08-09T03:20:29.527Z,78563.91
2022-08-09T03:23:00.369Z,78568.09
2022-08-09T03:25:58.562Z,78557.63
2022-08-09T03:28:29.150Z,78561.81
2022-08-09T03:30:56.974Z,78561.81
2022-08-09T03:33:23.532Z,78566.00
2022-08-09T03:36:12.342Z,78566.00
2022-08-09T03:38:41.949Z,78563.91
2022-08-09T03:41:15.021Z,78561.81
2022-08-09T03:43:51.855Z,78566.00
2022-08-09T03:46:32.271Z,78568.09
2022-08-09T03:49:03.658Z,78563.91
2022-08-09T03:51:55.660Z,78559.72
2022-08-09T03:54:18.198Z,78574.34
2022-08-09T03:56:58.854Z,78578.53
2022-08-09T03:59:27.314Z,78584.81
2022-08-09T04:01:59.073Z,78586.91
2022-08-09T04:04:27.009Z,78584.81
2022-08-09T04:07:04.059Z,78584.81
2022-08-09T04:09:41.955Z,78584.81
2022-08-09T04:12:30.853Z,78580.63
2022-08-09T04:15:02.597Z,78589.00
2022-08-09T04:17:44.460Z,78584.81
2022-08-09T04:20:14.846Z,78586.91
2022-08-09T04:22:44.189Z,78580.63
2022-08-09T04:25:11.685Z,78593.19
2022-08-09T04:27:42.048Z,78599.44
2022-08-09T04:30:16.446Z,78597.34
2022-08-09T04:32:46.007Z,78607.81
2022-08-09T04:35:14.249Z,78607.81
2022-08-09T04:37:45.660Z,78612.00
2022-08-09T04:40:28.449Z,78622.44
2022-08-09T04:43:00.518Z,78626.63
2022-08-09T04:45:30.669Z,78628.72
2022-08-09T04:48:04.147Z,78647.53
2022-08-09T04:50:37.901Z,78643.34
2022-08-09T04:53:13.096Z,78645.44
2022-08-09T04:55:57.872Z,78641.25
2022-08-09T04:58:27.029Z,78643.34
2022-08-09T05:00:54.403Z,78641.25
2022-08-09T05:03:39.898Z,78639.16
2022-08-09T05:06:08.888Z,78647.53
2022-08-09T05:08:35.440Z,78651.72
2022-08-09T05:11:03.064Z,78649.63
2022-08-09T05:13:33.161Z,78660.09
2022-08-09T05:16:00.552Z,78662.16
2022-08-09T05:18:39.214Z,78651.72
2022-08-09T05:21:23.136Z,78641.25
2022-08-09T05:23:59.545Z,78645.44
2022-08-09T05:26:36.936Z,78651.72
2022-08-09T05:29:17.060Z,78651.72
2022-08-09T05:31:46.661Z,78653.81
2022-08-09T05:34:17.502Z,78649.63
2022-08-09T05:36:47.336Z,78645.44
2022-08-09T05:39:28.917Z,78637.09
2022-08-09T05:41:56.601Z,78630.81
2022-08-09T05:44:29.218Z,78628.72
2022-08-09T05:46:59.796Z,78622.44
2022-08-09T05:50:23.462Z,78618.25
2022-08-09T05:52:12.888Z,78618.25
2022-08-09T05:54:40.344Z,78618.25
2022-08-09T05:57:07.522Z,78620.34
2022-08-09T05:59:39.400Z,78614.09
2022-08-09T06:02:09.125Z,78618.25
2022-08-09T06:04:36.806Z,78614.09
2022-08-09T06:07:11.487Z,78609.91
2022-08-09T06:10:01.338Z,78609.91
2022-08-09T06:12:29.638Z,78605.72
2022-08-09T06:15:00.762Z,78603.63
2022-08-09T06:17:38.993Z,78597.34
2022-08-09T06:20:08.161Z,78589.00
2022-08-09T06:22:35.423Z,78591.09
2022-08-09T06:25:02.274Z,78593.19
2022-08-09T06:27:42.103Z,78584.81
2022-08-09T06:30:10.611Z,78580.63
2022-08-09T06:32:58.900Z,78576.44
2022-08-09T06:35:55.788Z,78572.25
2022-08-09T06:38:14.070Z,78566.00
2022-08-09T06:40:42.680Z,78559.72
2022-08-09T06:43:10.702Z,78549.28
2022-08-09T06:46:06.431Z,78540.91
2022-08-09T06:48:26.116Z,78532.53
2022-08-09T06:50:59.003Z,78536.72
2022-08-09T06:53:25.443Z,78528.38
2022-08-09T06:55:52.268Z,78528.38
2022-08-09T06:58:28.595Z,78515.81
2022-08-09T07:01:05.814Z,78505.38
2022-08-09T07:03:39.728Z,78497.00
2022-08-09T07:06:18.304Z,78482.38
2022-08-09T07:08:46.644Z,78471.91
2022-08-09T07:11:23.369Z,78469.81
2022-08-09T07:14:05.703Z,78451.00
2022-08-09T07:16:43.303Z,78440.56
2022-08-09T07:19:18.703Z,78430.09
2022-08-09T07:21:56.999Z,78421.75
2022-08-09T07:24:31.997Z,78417.56
2022-08-09T07:27:24.057Z,78411.28
2022-08-09T07:29:52.923Z,78398.75
2022-08-09T07:32:23.810Z,78392.47
2022-08-09T07:35:01.060Z,78375.75
2022-08-09T07:37:29.392Z,78367.38
2022-08-09T07:39:56.171Z,78350.66
2022-08-09T07:42:32.499Z,78340.19
2022-08-09T07:45:01.855Z,78323.47
2022-08-09T07:47:49.347Z,78315.13
2022-08-09T07:50:34.709Z,78302.56
2022-08-09T07:53:04.674Z,78294.22
2022-08-09T07:55:41.659Z,78277.47
2022-08-09T07:58:19.013Z,78273.31
2022-08-09T08:00:55.739Z,78258.66
2022-08-09T08:03:26.751Z,78250.31
2022-08-09T08:05:57.858Z,78246.13
2022-08-09T08:09:00.758Z,78233.59
2022-08-09T08:12:10.349Z,78231.50
2022-08-09T08:13:58.233Z,78223.13
2022-08-09T08:16:31.916Z,78202.22
2022-08-09T08:18:59.566Z,78183.41
2022-08-09T08:21:30.418Z,78189.69
2022-08-09T08:23:57.004Z,78187.59
2022-08-09T08:26:55.066Z,78175.06
2022-08-09T08:29:14.784Z,78160.41
2022-08-09T08:32:03.848Z,78133.25
2022-08-09T08:34:33.726Z,78133.25
2022-08-09T08:37:01.637Z,78106.06
2022-08-09T08:39:28.286Z,78101.88
2022-08-09T08:41:55.123Z,78095.59
2022-08-09T08:44:29.177Z,78091.44
2022-08-09T08:46:59.720Z,78083.06
2022-08-09T08:49:33.486Z,78080.97
2022-08-09T08:52:35.022Z,78083.06
2022-08-09T08:55:03.782Z,78057.97
2022-08-09T08:57:34.855Z,78049.63
2022-08-09T09:00:02.198Z,78041.25
2022-08-09T09:02:31.218Z,78037.06
2022-08-09T09:05:06.200Z,78022.44
2022-08-09T09:07:37.117Z,78007.81
2022-08-09T09:10:10.165Z,78009.91
2022-08-09T09:12:37.290Z,78005.72
2022-08-09T09:15:06.502Z,77982.72
2022-08-09T09:17:49.321Z,77968.09
2022-08-09T09:20:21.374Z,77953.47
2022-08-09T09:22:54.115Z,77959.72
2022-08-09T09:26:04.669Z,77949.28
2022-08-09T09:29:01.801Z,77936.72
2022-08-09T09:32:03.585Z,77911.66
2022-08-09T09:34:15.187Z,77899.09
2022-08-09T09:36:53.201Z,77890.75
2022-08-09T09:39:54.693Z,77886.56
2022-08-09T09:42:29.894Z,77861.47
2022-08-09T09:45:03.104Z,77855.22
2022-08-09T09:47:30.030Z,77848.94
2022-08-09T09:50:15.698Z,77846.84
2022-08-09T09:52:56.282Z,77838.50
2022-08-09T09:55:31.428Z,77836.41
2022-08-09T09:58:17.932Z,77840.56
2022-08-09T10:00:59.087Z,77825.94
2022-08-09T10:03:57.423Z,77821.75
2022-08-09T10:06:32.309Z,77817.59
2022-08-09T10:09:11.600Z,77792.50
2022-08-09T10:12:01.278Z,77779.97
2022-08-09T10:14:35.423Z,77759.06
2022-08-09T10:17:40.044Z,77771.59
2022-08-09T10:19:59.875Z,77700.53
2022-08-09T10:22:45.117Z,77717.25
2022-08-09T10:25:14.712Z,77710.97
2022-08-09T10:27:57.132Z,77700.53
2022-08-09T10:34:08.106Z,77669.16
2022-08-09T10:36:02.182Z,77656.63
2022-08-09T10:38:41.731Z,77631.56
2022-08-09T10:41:18.604Z,77637.81
2022-08-09T10:43:58.781Z,77637.81
2022-08-09T10:46:29.653Z,77623.19
2022-08-09T10:49:03.729Z,77610.66
2022-08-09T10:52:26.461Z,77589.75
2022-08-09T10:54:53.597Z,77593.94
2022-08-09T10:57:20.296Z,77577.19
2022-08-09T10:59:58.058Z,77562.56
2022-08-09T11:03:15.717Z,77566.75
2022-08-09T11:05:30.238Z,77570.94
2022-08-09T11:07:59.389Z,77566.75
2022-08-09T11:10:53.210Z,77573.03
2022-08-09T11:13:51.184Z,77581.38
2022-08-09T11:16:37.839Z,77558.38
2022-08-09T11:19:09.348Z,77560.47
2022-08-09T11:21:56.821Z,77568.84
2022-08-09T11:24:24.224Z,77552.13
2022-08-09T11:26:54.708Z,77550.03
2022-08-09T11:30:04.303Z,77558.38
2022-08-09T11:33:07.941Z,77539.56
2022-08-09T11:35:50.122Z,77527.03
2022-08-09T11:38:30.998Z,77514.50
2022-08-09T11:41:38.433Z,77522.84
2022-08-09T11:44:07.468Z,77527.03
2022-08-09T11:46:57.169Z,77524.94
2022-08-09T11:50:54.128Z,77508.22
2022-08-09T11:53:15.750Z,77497.78
2022-08-09T11:55:52.405Z,77481.06
2022-08-09T11:58:30.460Z,77472.69
2022-08-09T12:01:08.367Z,77468.50
2022-08-09T12:03:55.562Z,77466.41
2022-08-09T12:06:26.504Z,77445.53
2022-08-09T12:08:55.001Z,77424.63
2022-08-09T12:11:22.423Z,77432.97
2022-08-09T12:14:07.233Z,77426.72
2022-08-09T12:16:39.944Z,77420.44
2022-08-09T12:19:09.305Z,77428.78
2022-08-09T12:21:48.300Z,77414.16
2022-08-09T12:24:22.316Z,77395.34
2022-08-09T12:29:11.738Z,77407.91
2022-08-09T12:29:44.676Z,77405.81
2022-08-09T12:32:25.774Z,77407.91
2022-08-09T12:34:59.468Z,77391.19
2022-08-09T12:37:50.426Z,77359.81
2022-08-09T12:40:20.421Z,77368.19
2022-08-09T12:42:50.367Z,77361.91
2022-08-09T12:45:33.520Z,77349.38
2022-08-09T12:48:04.513Z,77345.19
2022-08-09T12:50:31.566Z,77345.19
2022-08-09T12:53:09.221Z,77336.84
2022-08-09T12:56:14.045Z,77330.56
2022-08-09T12:58:32.290Z,77320.13
2022-08-09T13:01:04.733Z,77324.28
2022-08-09T13:03:58.641Z,77292.94
2022-08-09T13:06:42.178Z,77295.03
2022-08-09T13:09:12.762Z,77303.41
2022-08-09T13:11:50.342Z,77311.75
2022-08-09T13:14:40.638Z,77292.94
2022-08-09T13:17:16.213Z,77301.31
2022-08-09T13:20:09.305Z,77288.75
2022-08-09T13:23:05.677Z,77276.22
2022-08-09T13:25:52.919Z,77265.78
2022-08-09T13:28:33.744Z,77284.59
2022-08-09T13:32:15.524Z,77278.31
2022-08-09T13:33:56.600Z,77267.88
2022-08-09T13:36:40.308Z,77272.03
2022-08-09T13:41:52.043Z,77280.41
2022-08-09T13:42:12.054Z,77274.13
2022-08-09T13:44:42.711Z,77276.22
2022-08-09T13:47:33.247Z,77255.31
2022-08-09T13:50:29.921Z,77267.88
2022-08-09T13:52:57.967Z,77244.88
2022-08-09T13:55:24.451Z,77234.41
2022-08-09T13:57:58.373Z,77228.16
2022-08-09T14:00:28.574Z,77242.78
2022-08-09T14:03:03.306Z,77257.41
2022-08-09T14:05:59.082Z,77244.88
2022-08-09T14:08:29.826Z,77240.69
2022-08-09T14:10:57.301Z,77226.06
2022-08-09T14:13:28.420Z,77226.06
2022-08-09T14:16:15.316Z,77211.44
2022-08-09T14:18:45.926Z,77215.63
2022-08-09T14:21:17.942Z,77232.34
2022-08-09T14:23:54.725Z,77221.88
2022-08-09T14:26:32.064Z,77236.50
2022-08-09T14:29:07.573Z,77242.78
2022-08-09T14:31:53.320Z,77232.34
2022-08-09T14:34:31.564Z,77230.25
2022-08-09T14:37:01.035Z,77226.06
2022-08-09T14:39:39.957Z,77211.44
2022-08-09T14:42:07.929Z,77228.16
2022-08-09T14:44:48.403Z,77238.59
2022-08-09T14:47:39.894Z,77232.34
2022-08-09T14:50:08.789Z,77221.88
2022-08-09T14:52:37.630Z,77207.25
2022-08-09T14:55:06.834Z,77203.06
2022-08-09T14:57:43.594Z,77203.06
2022-08-09T15:00:11.986Z,77194.72
2022-08-09T15:02:38.760Z,77188.44
2022-08-09T15:05:07.156Z,77178.00
2022-08-09T15:07:35.333Z,77169.63
2022-08-09T15:10:10.679Z,77175.91
2022-08-09T15:12:40.532Z,77188.44
2022-08-09T15:15:11.900Z,77182.16
2022-08-09T15:17:41.877Z,77198.88
2022-08-09T15:20:11.818Z,77205.16
2022-08-09T15:22:46.566Z,77192.63
2022-08-09T15:25:14.480Z,77190.53
2022-08-09T15:27:48.023Z,77178.00
2022-08-09T15:30:55.746Z,77175.91
2022-08-09T15:33:23.306Z,77192.63
2022-08-09T15:36:01.874Z,77194.72
2022-08-09T15:38:33.846Z,77190.53
2022-08-09T15:41:00.382Z,77178.00
2022-08-09T15:43:38.226Z,77180.09
2022-08-09T15:46:18.743Z,77175.91
2022-08-09T15:49:20.622Z,77165.44
2022-08-09T15:52:02.282Z,77157.09
2022-08-09T15:54:31.228Z,77144.56
2022-08-09T15:57:07.494Z,77161.28
2022-08-09T15:59:36.704Z,77180.09
2022-08-09T16:02:04.069Z,77217.69
2022-08-09T16:04:32.197Z,77223.97
2022-08-09T16:07:01.953Z,77238.59
2022-08-09T16:09:32.436Z,77236.50
2022-08-09T16:12:15.643Z,77230.25
2022-08-09T16:14:42.380Z,77244.88
2022-08-09T16:17:09.270Z,77265.78
2022-08-09T16:19:36.685Z,77253.22
2022-08-09T16:22:03.461Z,77251.13
2022-08-09T16:24:34.088Z,77261.59
2022-08-09T16:27:01.492Z,77246.97
2022-08-09T16:29:37.915Z,77269.94
2022-08-09T16:32:33.579Z,77246.97
2022-08-09T16:35:01.023Z,77221.88
2022-08-09T16:37:54.527Z,77215.63
2022-08-09T16:40:20.740Z,77236.50
2022-08-09T16:42:57.424Z,77242.78
2022-08-09T16:45:23.930Z,77221.88
2022-08-09T16:48:41.896Z,77236.50
2022-08-09T16:50:40.317Z,77232.34
2022-08-09T16:53:16.480Z,77228.16
2022-08-09T16:55:58.890Z,77265.78
2022-08-09T16:58:28.243Z,77282.50
2022-08-09T17:01:02.841Z,77297.13
2022-08-09T17:03:30.599Z,77303.41
2022-08-09T17:06:06.853Z,77305.47
2022-08-09T17:08:47.089Z,77328.47
2022-08-09T17:11:40.029Z,77336.84
2022-08-09T17:14:16.034Z,77345.19
2022-08-09T17:16:55.852Z,77355.66
2022-08-09T17:19:22.356Z,77378.63
2022-08-09T17:21:55.485Z,77376.53
2022-08-09T17:24:30.469Z,77389.09
2022-08-09T17:26:57.605Z,77405.81
2022-08-09T17:29:24.980Z,77405.81
2022-08-09T17:32:00.180Z,77422.53
2022-08-09T17:35:03.971Z,77426.72
2022-08-09T17:37:19.657Z,77439.25
2022-08-09T17:39:52.233Z,77455.97
2022-08-09T17:42:40.982Z,77468.50
2022-08-09T17:45:23.810Z,77472.69
2022-08-09T17:47:54.811Z,77483.16
2022-08-09T17:50:36.151Z,77495.69
2022-08-09T17:53:19.202Z,77504.03
2022-08-09T17:55:48.837Z,77512.41
2022-08-09T17:58:18.925Z,77516.59
2022-08-09T18:00:48.038Z,77520.75
2022-08-09T18:03:17.730Z,77524.94
2022-08-09T18:05:44.649Z,77531.22
2022-08-09T18:08:13.278Z,77535.41
2022-08-09T18:10:39.937Z,77547.94
2022-08-09T18:13:38.909Z,77558.38
2022-08-09T18:16:08.430Z,77560.47
2022-08-09T18:18:36.328Z,77562.56
2022-08-09T18:21:23.182Z,77570.94
2022-08-09T18:24:11.679Z,77587.66
2022-08-09T18:26:38.153Z,77596.00
2022-08-09T18:30:37.643Z,77616.91
2022-08-09T18:31:56.363Z,77623.19
2022-08-09T18:34:24.130Z,77631.56
2022-08-09T18:36:53.491Z,77639.91
2022-08-09T18:39:22.339Z,77650.34
2022-08-09T18:41:52.717Z,77662.91
2022-08-09T18:44:22.996Z,77673.34
2022-08-09T18:47:07.516Z,77690.06
2022-08-09T18:49:43.302Z,77696.34
2022-08-09T18:52:13.934Z,77710.97
2022-08-09T18:54:42.239Z,77731.88
2022-08-09T18:57:19.880Z,77742.34
2022-08-09T18:59:55.123Z,77752.78
2022-08-09T19:02:24.071Z,77754.88
2022-08-09T19:05:14.672Z,77767.41
2022-08-09T19:07:59.313Z,77769.50
2022-08-09T19:10:37.341Z,77779.97
2022-08-09T19:13:18.614Z,77790.41
2022-08-09T19:15:52.972Z,77800.84
2022-08-09T19:18:33.488Z,77807.13
2022-08-09T19:21:08.923Z,77819.69
2022-08-09T19:24:37.881Z,77825.94
2022-08-09T19:26:30.962Z,77836.41
2022-08-09T19:29:01.801Z,77842.66
2022-08-09T19:31:30.304Z,77846.84
2022-08-09T19:33:57.916Z,77855.22
2022-08-09T19:36:30.906Z,77859.38
2022-08-09T19:39:01.219Z,77869.84
2022-08-09T19:41:35.351Z,77882.38
2022-08-09T19:44:03.189Z,77886.56
2022-08-09T19:46:35.063Z,77890.75
2022-08-09T19:50:48.455Z,77892.84
2022-08-09T19:51:55.334Z,77901.19
2022-08-09T19:54:28.460Z,77897.00
2022-08-09T19:56:55.991Z,77907.47
2022-08-09T19:59:58.828Z,77913.75
2022-08-09T20:02:17.157Z,77924.19
2022-08-09T20:04:58.694Z,77926.28
2022-08-09T20:07:26.170Z,77926.28
2022-08-09T20:10:17.597Z,77928.38
2022-08-09T20:12:49.035Z,77932.56
2022-08-09T20:16:33.000Z,77934.66
2022-08-09T20:18:05.190Z,77938.81
2022-08-09T20:20:35.385Z,77943.00
2022-08-09T20:23:04.284Z,77945.09
2022-08-09T20:25:38.110Z,77947.19
2022-08-09T20:28:28.020Z,77951.38
2022-08-09T20:31:04.945Z,77961.81
2022-08-09T20:33:39.178Z,77970.19
2022-08-09T20:36:10.324Z,77970.19
2022-08-09T20:39:04.303Z,77974.38
2022-08-09T20:41:32.463Z,77984.81
2022-08-09T20:44:03.875Z,77984.81
2022-08-09T20:46:41.913Z,77986.91
2022-08-09T20:49:11.216Z,77995.28
2022-08-09T20:51:41.467Z,77999.44
2022-08-09T20:54:08.357Z,78003.63
2022-08-09T20:56:39.397Z,78009.91
2022-08-09T20:59:07.479Z,78018.25
2022-08-09T21:01:50.575Z,78020.34
2022-08-09T21:05:51.071Z,78030.81
2022-08-09T21:07:11.534Z,78034.97
2022-08-09T21:09:55.340Z,78034.97
2022-08-09T21:15:12.917Z,78043.34
2022-08-09T21:18:25.259Z,78045.44
2022-08-09T21:20:26.833Z,78051.72
2022-08-09T21:22:56.681Z,78060.06
2022-08-09T21:25:44.177Z,78062.16
2022-08-09T21:28:36.351Z,78068.44
2022-08-09T21:31:17.766Z,78070.53
2022-08-09T21:33:50.906Z,78070.53
2022-08-09T21:36:22.997Z,78083.06
2022-08-09T21:38:51.118Z,78080.97
2022-08-09T21:41:25.531Z,78078.88
2022-08-09T21:44:10.287Z,78087.25
2022-08-09T21:46:36.774Z,78095.59
2022-08-09T21:49:03.786Z,78097.69
2022-08-09T21:51:35.877Z,78103.97
2022-08-09T21:54:02.640Z,78101.88
2022-08-09T21:56:43.448Z,78101.88
2022-08-09T21:59:16.307Z,78108.16
2022-08-09T22:02:00.583Z,78108.16
2022-08-09T22:04:55.334Z,78108.16
2022-08-09T22:07:33.829Z,78118.59
2022-08-09T22:10:03.085Z,78112.34
2022-08-09T22:12:30.776Z,78126.97
2022-08-09T22:14:58.581Z,78133.25
2022-08-09T22:17:25.314Z,78139.50
2022-08-09T22:19:58.840Z,78137.41
2022-08-09T22:22:27.816Z,78147.88
2022-08-09T22:26:07.258Z,78152.06
2022-08-09T22:27:40.828Z,78152.06
2022-08-09T22:30:09.345Z,78158.31
2022-08-09T22:32:36.031Z,78154.16
2022-08-09T22:35:06.085Z,78158.31
2022-08-09T22:37:40.097Z,78158.31
2022-08-09T22:40:08.432Z,78164.59
2022-08-09T22:42:35.047Z,78170.88
2022-08-09T22:48:05.851Z,78175.06
2022-08-09T22:48:11.987Z,78181.31
2022-08-09T22:50:34.656Z,78185.50
2022-08-09T22:53:03.983Z,78183.41
2022-08-09T22:56:05.914Z,78187.59
2022-08-09T22:58:20.421Z,78200.13
2022-08-09T23:00:59.536Z,78204.31
2022-08-09T23:04:02.395Z,78204.31
2022-08-09T23:06:14.163Z,78206.41
2022-08-09T23:08:44.240Z,78210.59
2022-08-09T23:11:15.963Z,78210.59
2022-08-09T23:13:44.267Z,78210.59
2022-08-09T23:16:12.444Z,78212.69
2022-08-09T23:18:39.190Z,78221.03
2022-08-09T23:21:06.423Z,78218.94
2022-08-09T23:23:33.274Z,78218.94
2022-08-09T23:26:00.096Z,78214.78
2022-08-09T23:28:26.594Z,78214.78
2022-08-09T23:30:53.473Z,78212.69
2022-08-09T23:33:23.538Z,78221.03
2022-08-09T23:36:06.059Z,78227.31
2022-08-09T23:38:34.185Z,78229.41
2022-08-09T23:41:01.454Z,78225.22
2022-08-09T23:43:28.014Z,78227.31
2022-08-09T23:45:54.482Z,78227.31
2022-08-09T23:48:20.996Z,78235.69
2022-08-09T23:50:47.538Z,78231.50
2022-08-09T23:53:14.144Z,78233.59
2022-08-09T23:55:46.190Z,78235.69
2022-08-09T23:58:25.817Z,78241.94
